Terminal Aerodrome Forecast
Issued by NWS Rapid City, SD

Home | Current Version | Previous Version | Text Only | Print | Product List | Glossary Off
Versions: 1 2 3 4 5 6 7 8 9 10 11 12 13 14 15 16 17 18 19

000
FTUS43 KUNR 222000 AAA
TAFRAP
TAF AMD
KRAP 222003Z 2220/2318 28010KT P6SM BKN150
     FM230300 33018G28KT P6SM BKN070
     FM230800 33020G30KT P6SM SCT150=

USA.gov is the U.S. government's official web portal to all federal, state and local government web resources and services.